Hovedside
METAR-TAF:

METAR-TAF

Lufthavner :

Antonio B. Won Pat internasjonale lufthavn

Hagåtña, Guam, USA

breddegrad: 13-29N, lengdegrad: 144-48E, høyde over havet: 91 m

Gjeldene værobservasjon

Denne rapporten ble laget for 41 minutter siden, klokken 02:54 UTC
Vind 4 kt fra Sør
Temperatur 31°C
Luftfuktighet 75%
Trykk 1010 hPa
Sikt: 16.1 km
Få skyer i en høyde av 2300 ft

METAR: PGUM 170254Z 18004KT 10SM FEW023 31/26 A2982 RMK AO2 SLP091 T03060261 58012

Tid: 13:35 (03:35 UTC)

Varsel

Denne rapporten ble laget for 3 timer og 43 minutter siden, klokken 23:52 UTC
Varsel gyldig fra 17. klokken 00 UTC til 18. klokken 06 UTC
Vind 8 kt fra Sør
Sikt: 10 km
Spredte skyer i en høyde av 1500 ft
Spredte skyer i en høyde av 4000 ft
Brutte skyer i en høyde av 12000 ft
regnbyger i nærheten
Midlertidig
fra 17. klokken 00 UTC til 17. klokken 02 UTC
Brutte skyer i en høyde av 2500 ft

TAF: PGUM 162352Z 1700/1806 17008KT P6SM VCSH SCT015 SCT040 BKN120 TEMPO 1700/1702 BKN025

Værobservasjoner og værvarsel for over 4000 flyplasser (METAR- og TAF-rapporter).

Tilgjengelige stasjoner er representert av de røde og gule prikkene på kartet.

Hold musepekeren over prikken for å se navnet på stasjonen.

Klikk så for å se værobservasjoner og -varsler.

For å forandre kartet kan du klikke på den grønne knappen med svart kryss for å zoome inn, på den grønne knappen med strek for å zoome ut, eller på de grønne pilene for å se tilstøtende kart.


METAR-TAF: